sensor_id;sensor_type;location;lat;lon;timestamp;P1;durP1;ratioP1;P2;durP2;ratioP2
56960;SDS011;42857;49.768;22.716;2022-08-19T00:01:15;20.50;;;16.65;;
56960;SDS011;42857;49.768;22.716;2022-08-19T00:03:41;19.80;;;16.98;;
56960;SDS011;42857;49.768;22.716;2022-08-19T00:06:07;20.13;;;16.33;;
56960;SDS011;42857;49.768;22.716;2022-08-19T00:08:33;24.55;;;18.35;;
56960;SDS011;42857;49.768;22.716;2022-08-19T00:10:59;18.90;;;16.85;;
56960;SDS011;42857;49.768;22.716;2022-08-19T00:13:25;24.38;;;18.80;;
56960;SDS011;42857;49.768;22.716;2022-08-19T00:15:53;21.13;;;16.88;;
56960;SDS011;42857;49.768;22.716;2022-08-19T00:18:19;20.90;;;15.65;;
56960;SDS011;42857;49.768;22.716;2022-08-19T00:20:45;24.75;;;17.58;;
56960;SDS011;42857;49.768;22.716;2022-08-19T00:23:11;21.60;;;17.95;;
56960;SDS011;42857;49.768;22.716;2022-08-19T00:25:37;21.00;;;16.80;;
56960;SDS011;42857;49.768;22.716;2022-08-19T00:28:03;18.85;;;15.93;;
56960;SDS011;42857;49.768;22.716;2022-08-19T00:30:30;23.48;;;16.90;;
56960;SDS011;42857;49.768;22.716;2022-08-19T00:32:56;28.90;;;17.13;;
56960;SDS011;42857;49.768;22.716;2022-08-19T00:35:22;26.02;;;19.80;;
56960;SDS011;42857;49.768;22.716;2022-08-19T00:37:49;21.48;;;17.25;;
56960;SDS011;42857;49.768;22.716;2022-08-19T00:40:15;21.45;;;17.00;;
56960;SDS011;42857;49.768;22.716;2022-08-19T00:42:44;19.33;;;16.75;;
56960;SDS011;42857;49.768;22.716;2022-08-19T00:45:14;18.70;;;15.27;;
56960;SDS011;42857;49.768;22.716;2022-08-19T00:47:41;17.83;;;15.07;;
56960;SDS011;42857;49.768;22.716;2022-08-19T00:50:07;19.40;;;14.85;;
56960;SDS011;42857;49.768;22.716;2022-08-19T00:52:35;19.88;;;16.95;;
56960;SDS011;42857;49.768;22.716;2022-08-19T00:55:04;21.98;;;15.63;;
56960;SDS011;42857;49.768;22.716;2022-08-19T00:57:35;18.40;;;16.37;;
56960;SDS011;42857;49.768;22.716;2022-08-19T01:00:03;20.05;;;16.95;;
56960;SDS011;42857;49.768;22.716;2022-08-19T01:02:30;19.58;;;15.35;;
56960;SDS011;42857;49.768;22.716;2022-08-19T01:04:59;20.50;;;17.65;;
56960;SDS011;42857;49.768;22.716;2022-08-19T01:07:25;19.52;;;17.02;;
56960;SDS011;42857;49.768;22.716;2022-08-19T01:09:51;23.08;;;17.38;;
56960;SDS011;42857;49.768;22.716;2022-08-19T01:12:17;19.63;;;16.80;;
56960;SDS011;42857;49.768;22.716;2022-08-19T01:14:43;19.95;;;16.80;;
56960;SDS011;42857;49.768;22.716;2022-08-19T01:17:10;21.35;;;15.93;;
56960;SDS011;42857;49.768;22.716;2022-08-19T01:19:38;18.83;;;15.48;;
56960;SDS011;42857;49.768;22.716;2022-08-19T01:24:49;18.98;;;15.45;;
56960;SDS011;42857;49.768;22.716;2022-08-19T01:27:15;19.15;;;15.88;;
56960;SDS011;42857;49.768;22.716;2022-08-19T01:29:41;20.17;;;15.50;;
56960;SDS011;42857;49.768;22.716;2022-08-19T01:32:12;19.55;;;15.20;;
56960;SDS011;42857;49.768;22.716;2022-08-19T01:34:38;23.80;;;17.30;;
56960;SDS011;42857;49.768;22.716;2022-08-19T01:37:06;18.58;;;15.88;;
56960;SDS011;42857;49.768;22.716;2022-08-19T01:39:33;20.00;;;15.88;;
56960;SDS011;42857;49.768;22.716;2022-08-19T01:41:59;23.67;;;16.83;;
56960;SDS011;42857;49.768;22.716;2022-08-19T01:44:28;19.73;;;15.98;;
56960;SDS011;42857;49.768;22.716;2022-08-19T01:46:54;19.02;;;15.93;;
56960;SDS011;42857;49.768;22.716;2022-08-19T01:49:21;19.38;;;14.93;;
56960;SDS011;42857;49.768;22.716;2022-08-19T01:51:47;19.92;;;15.48;;
56960;SDS011;42857;49.768;22.716;2022-08-19T01:54:15;18.50;;;14.45;;
56960;SDS011;42857;49.768;22.716;2022-08-19T01:56:41;18.20;;;15.20;;
56960;SDS011;42857;49.768;22.716;2022-08-19T01:59:12;20.42;;;16.05;;
56960;SDS011;42857;49.768;22.716;2022-08-19T02:01:38;19.33;;;14.93;;
56960;SDS011;42857;49.768;22.716;2022-08-19T02:04:04;21.38;;;16.00;;
56960;SDS011;42857;49.768;22.716;2022-08-19T02:06:30;18.70;;;15.73;;
56960;SDS011;42857;49.768;22.716;2022-08-19T02:08:57;16.77;;;14.80;;
56960;SDS011;42857;49.768;22.716;2022-08-19T02:11:24;16.08;;;14.38;;
56960;SDS011;42857;49.768;22.716;2022-08-19T02:13:51;17.73;;;14.63;;
56960;SDS011;42857;49.768;22.716;2022-08-19T02:16:18;17.15;;;14.88;;
56960;SDS011;42857;49.768;22.716;2022-08-19T02:18:44;19.42;;;15.77;;
56960;SDS011;42857;49.768;22.716;2022-08-19T02:21:11;18.50;;;15.13;;
56960;SDS011;42857;49.768;22.716;2022-08-19T02:23:38;19.08;;;15.45;;
56960;SDS011;42857;49.768;22.716;2022-08-19T02:26:04;22.83;;;15.90;;
56960;SDS011;42857;49.768;22.716;2022-08-19T02:28:30;16.15;;;14.45;;
56960;SDS011;42857;49.768;22.716;2022-08-19T02:30:57;19.30;;;14.70;;
56960;SDS011;42857;49.768;22.716;2022-08-19T02:33:25;16.30;;;14.63;;
56960;SDS011;42857;49.768;22.716;2022-08-19T02:35:51;16.60;;;14.10;;
56960;SDS011;42857;49.768;22.716;2022-08-19T02:38:17;17.60;;;14.45;;
56960;SDS011;42857;49.768;22.716;2022-08-19T02:40:53;16.60;;;14.02;;
56960;SDS011;42857;49.768;22.716;2022-08-19T02:43:20;15.80;;;13.98;;
56960;SDS011;42857;49.768;22.716;2022-08-19T02:45:46;19.15;;;14.80;;
56960;SDS011;42857;49.768;22.716;2022-08-19T02:48:13;17.35;;;14.52;;
56960;SDS011;42857;49.768;22.716;2022-08-19T02:50:42;16.92;;;15.13;;
56960;SDS011;42857;49.768;22.716;2022-08-19T02:53:08;18.00;;;15.45;;
56960;SDS011;42857;49.768;22.716;2022-08-19T02:55:34;16.83;;;14.32;;
56960;SDS011;42857;49.768;22.716;2022-08-19T02:58:00;17.75;;;15.13;;
56960;SDS011;42857;49.768;22.716;2022-08-19T03:00:26;18.15;;;15.07;;
56960;SDS011;42857;49.768;22.716;2022-08-19T03:02:53;17.35;;;14.35;;
56960;SDS011;42857;49.768;22.716;2022-08-19T03:05:19;18.27;;;15.15;;
56960;SDS011;42857;49.768;22.716;2022-08-19T03:07:45;17.35;;;15.38;;
56960;SDS011;42857;49.768;22.716;2022-08-19T03:10:12;17.35;;;15.48;;
56960;SDS011;42857;49.768;22.716;2022-08-19T03:12:38;19.33;;;16.75;;
56960;SDS011;42857;49.768;22.716;2022-08-19T03:15:05;19.58;;;16.10;;
56960;SDS011;42857;49.768;22.716;2022-08-19T03:17:32;17.98;;;15.38;;
56960;SDS011;42857;49.768;22.716;2022-08-19T03:19:58;20.80;;;15.07;;
56960;SDS011;42857;49.768;22.716;2022-08-19T03:22:24;18.35;;;14.88;;
56960;SDS011;42857;49.768;22.716;2022-08-19T03:24:50;19.73;;;15.63;;
56960;SDS011;42857;49.768;22.716;2022-08-19T03:27:16;20.38;;;14.77;;
56960;SDS011;42857;49.768;22.716;2022-08-19T03:29:42;18.77;;;15.25;;
56960;SDS011;42857;49.768;22.716;2022-08-19T03:32:10;22.30;;;16.52;;
56960;SDS011;42857;49.768;22.716;2022-08-19T03:34:37;18.60;;;14.57;;
56960;SDS011;42857;49.768;22.716;2022-08-19T03:37:05;17.90;;;13.63;;
56960;SDS011;42857;49.768;22.716;2022-08-19T03:39:31;18.70;;;14.55;;
56960;SDS011;42857;49.768;22.716;2022-08-19T03:41:57;18.45;;;14.73;;
56960;SDS011;42857;49.768;22.716;2022-08-19T03:44:24;15.35;;;13.73;;
56960;SDS011;42857;49.768;22.716;2022-08-19T03:46:54;19.42;;;14.45;;
56960;SDS011;42857;49.768;22.716;2022-08-19T03:49:21;22.33;;;14.88;;
56960;SDS011;42857;49.768;22.716;2022-08-19T03:51:48;19.70;;;15.50;;
56960;SDS011;42857;49.768;22.716;2022-08-19T03:54:16;20.25;;;15.50;;
56960;SDS011;42857;49.768;22.716;2022-08-19T03:56:43;19.25;;;16.02;;
56960;SDS011;42857;49.768;22.716;2022-08-19T03:59:12;20.45;;;17.10;;
56960;SDS011;42857;49.768;22.716;2022-08-19T04:01:39;20.67;;;16.48;;
56960;SDS011;42857;49.768;22.716;2022-08-19T04:04:05;17.52;;;15.80;;
56960;SDS011;42857;49.768;22.716;2022-08-19T04:06:32;17.23;;;15.40;;
56960;SDS011;42857;49.768;22.716;2022-08-19T04:09:00;18.52;;;14.80;;
56960;SDS011;42857;49.768;22.716;2022-08-19T04:11:27;18.52;;;16.55;;
56960;SDS011;42857;49.768;22.716;2022-08-19T04:13:54;21.73;;;17.30;;
56960;SDS011;42857;49.768;22.716;2022-08-19T04:16:21;21.45;;;17.73;;
56960;SDS011;42857;49.768;22.716;2022-08-19T04:18:48;23.63;;;18.88;;
56960;SDS011;42857;49.768;22.716;2022-08-19T04:21:18;21.70;;;16.63;;
56960;SDS011;42857;49.768;22.716;2022-08-19T04:23:44;21.88;;;16.92;;
56960;SDS011;42857;49.768;22.716;2022-08-19T04:26:14;23.77;;;16.80;;
56960;SDS011;42857;49.768;22.716;2022-08-19T04:28:41;17.45;;;15.75;;
56960;SDS011;42857;49.768;22.716;2022-08-19T04:31:11;26.15;;;18.50;;
56960;SDS011;42857;49.768;22.716;2022-08-19T04:33:38;24.17;;;19.20;;
56960;SDS011;42857;49.768;22.716;2022-08-19T04:36:04;21.42;;;19.10;;
56960;SDS011;42857;49.768;22.716;2022-08-19T04:38:30;23.67;;;19.75;;
56960;SDS011;42857;49.768;22.716;2022-08-19T04:40:56;23.98;;;20.25;;
56960;SDS011;42857;49.768;22.716;2022-08-19T04:43:41;26.60;;;18.38;;
56960;SDS011;42857;49.768;22.716;2022-08-19T04:46:07;19.30;;;16.58;;
56960;SDS011;42857;49.768;22.716;2022-08-19T04:48:34;23.13;;;17.95;;
56960;SDS011;42857;49.768;22.716;2022-08-19T04:51:00;21.33;;;17.88;;
56960;SDS011;42857;49.768;22.716;2022-08-19T04:53:32;20.10;;;17.60;;
56960;SDS011;42857;49.768;22.716;2022-08-19T04:55:59;26.20;;;18.02;;
56960;SDS011;42857;49.768;22.716;2022-08-19T04:58:27;21.95;;;18.20;;
56960;SDS011;42857;49.768;22.716;2022-08-19T05:00:53;24.90;;;18.67;;
56960;SDS011;42857;49.768;22.716;2022-08-19T05:03:20;26.15;;;21.08;;
56960;SDS011;42857;49.768;22.716;2022-08-19T05:05:47;23.00;;;19.63;;
56960;SDS011;42857;49.768;22.716;2022-08-19T05:08:14;21.58;;;17.95;;
56960;SDS011;42857;49.768;22.716;2022-08-19T05:10:44;25.02;;;19.80;;
56960;SDS011;42857;49.768;22.716;2022-08-19T05:13:11;22.33;;;18.77;;
56960;SDS011;42857;49.768;22.716;2022-08-19T05:15:37;24.77;;;20.02;;
56960;SDS011;42857;49.768;22.716;2022-08-19T05:18:03;24.92;;;20.70;;
56960;SDS011;42857;49.768;22.716;2022-08-19T05:20:48;22.67;;;19.77;;
56960;SDS011;42857;49.768;22.716;2022-08-19T05:23:33;22.05;;;19.02;;
56960;SDS011;42857;49.768;22.716;2022-08-19T05:25:59;25.17;;;19.98;;
56960;SDS011;42857;49.768;22.716;2022-08-19T05:28:24;21.33;;;19.05;;
56960;SDS011;42857;49.768;22.716;2022-08-19T05:30:50;23.85;;;18.38;;
56960;SDS011;42857;49.768;22.716;2022-08-19T05:33:17;22.23;;;18.83;;
56960;SDS011;42857;49.768;22.716;2022-08-19T05:35:43;21.42;;;18.13;;
56960;SDS011;42857;49.768;22.716;2022-08-19T05:38:09;21.63;;;19.13;;
56960;SDS011;42857;49.768;22.716;2022-08-19T05:40:36;21.23;;;18.77;;
56960;SDS011;42857;49.768;22.716;2022-08-19T05:43:05;20.25;;;18.15;;
56960;SDS011;42857;49.768;22.716;2022-08-19T05:45:31;20.40;;;18.20;;
56960;SDS011;42857;49.768;22.716;2022-08-19T05:47:57;19.40;;;17.33;;
56960;SDS011;42857;49.768;22.716;2022-08-19T05:50:24;19.48;;;17.45;;
56960;SDS011;42857;49.768;22.716;2022-08-19T05:52:51;21.38;;;17.70;;
56960;SDS011;42857;49.768;22.716;2022-08-19T05:55:17;21.17;;;17.48;;
56960;SDS011;42857;49.768;22.716;2022-08-19T05:57:45;22.45;;;16.95;;
56960;SDS011;42857;49.768;22.716;2022-08-19T06:00:12;25.38;;;18.30;;
56960;SDS011;42857;49.768;22.716;2022-08-19T06:02:38;19.05;;;17.05;;
56960;SDS011;42857;49.768;22.716;2022-08-19T06:05:04;20.17;;;18.10;;
56960;SDS011;42857;49.768;22.716;2022-08-19T06:07:33;23.40;;;20.95;;
56960;SDS011;42857;49.768;22.716;2022-08-19T06:09:59;22.50;;;19.80;;
56960;SDS011;42857;49.768;22.716;2022-08-19T06:12:25;18.23;;;16.33;;
56960;SDS011;42857;49.768;22.716;2022-08-19T06:14:55;19.75;;;17.80;;
56960;SDS011;42857;49.768;22.716;2022-08-19T06:17:21;18.45;;;16.50;;
56960;SDS011;42857;49.768;22.716;2022-08-19T06:19:50;21.53;;;18.17;;
56960;SDS011;42857;49.768;22.716;2022-08-19T06:22:16;20.35;;;18.27;;
56960;SDS011;42857;49.768;22.716;2022-08-19T06:24:42;16.45;;;14.75;;
56960;SDS011;42857;49.768;22.716;2022-08-19T06:27:08;15.85;;;14.25;;
56960;SDS011;42857;49.768;22.716;2022-08-19T06:29:34;13.23;;;11.82;;
56960;SDS011;42857;49.768;22.716;2022-08-19T06:32:01;14.73;;;12.30;;
56960;SDS011;42857;49.768;22.716;2022-08-19T06:34:28;14.32;;;12.35;;
56960;SDS011;42857;49.768;22.716;2022-08-19T06:36:55;13.52;;;11.88;;
56960;SDS011;42857;49.768;22.716;2022-08-19T06:39:25;16.65;;;11.55;;
56960;SDS011;42857;49.768;22.716;2022-08-19T06:41:52;15.48;;;12.30;;
56960;SDS011;42857;49.768;22.716;2022-08-19T06:44:20;12.60;;;11.30;;
56960;SDS011;42857;49.768;22.716;2022-08-19T06:46:46;12.13;;;10.48;;
56960;SDS011;42857;49.768;22.716;2022-08-19T06:49:13;15.70;;;12.27;;
56960;SDS011;42857;49.768;22.716;2022-08-19T06:51:43;12.43;;;11.20;;
56960;SDS011;42857;49.768;22.716;2022-08-19T06:54:11;15.10;;;11.55;;
56960;SDS011;42857;49.768;22.716;2022-08-19T06:56:37;13.95;;;11.57;;
56960;SDS011;42857;49.768;22.716;2022-08-19T06:59:04;14.30;;;11.88;;
56960;SDS011;42857;49.768;22.716;2022-08-19T07:01:33;15.02;;;10.90;;
56960;SDS011;42857;49.768;22.716;2022-08-19T07:03:59;13.15;;;11.60;;
56960;SDS011;42857;49.768;22.716;2022-08-19T07:06:27;14.27;;;11.93;;
56960;SDS011;42857;49.768;22.716;2022-08-19T07:08:55;14.45;;;11.52;;
56960;SDS011;42857;49.768;22.716;2022-08-19T07:11:22;14.95;;;11.57;;
56960;SDS011;42857;49.768;22.716;2022-08-19T07:13:48;15.63;;;11.50;;
56960;SDS011;42857;49.768;22.716;2022-08-19T07:16:16;15.23;;;11.30;;
56960;SDS011;42857;49.768;22.716;2022-08-19T07:18:44;11.68;;;10.65;;
56960;SDS011;42857;49.768;22.716;2022-08-19T07:21:15;14.00;;;11.70;;
56960;SDS011;42857;49.768;22.716;2022-08-19T07:23:41;12.73;;;11.13;;
56960;SDS011;42857;49.768;22.716;2022-08-19T07:26:12;15.27;;;11.68;;
56960;SDS011;42857;49.768;22.716;2022-08-19T07:28:39;11.82;;;10.63;;
56960;SDS011;42857;49.768;22.716;2022-08-19T07:31:06;12.43;;;11.23;;
56960;SDS011;42857;49.768;22.716;2022-08-19T07:33:32;14.60;;;13.05;;
56960;SDS011;42857;49.768;22.716;2022-08-19T07:36:00;14.15;;;12.07;;
56960;SDS011;42857;49.768;22.716;2022-08-19T07:38:26;14.45;;;11.27;;
56960;SDS011;42857;49.768;22.716;2022-08-19T07:40:53;16.08;;;11.45;;
56960;SDS011;42857;49.768;22.716;2022-08-19T07:43:19;13.07;;;11.60;;
56960;SDS011;42857;49.768;22.716;2022-08-19T07:45:50;12.75;;;11.55;;
56960;SDS011;42857;49.768;22.716;2022-08-19T07:48:16;12.02;;;10.90;;
56960;SDS011;42857;49.768;22.716;2022-08-19T07:50:42;15.40;;;12.10;;
56960;SDS011;42857;49.768;22.716;2022-08-19T07:53:08;15.00;;;11.35;;
56960;SDS011;42857;49.768;22.716;2022-08-19T07:55:34;13.80;;;10.77;;
56960;SDS011;42857;49.768;22.716;2022-08-19T07:58:00;12.60;;;10.93;;
56960;SDS011;42857;49.768;22.716;2022-08-19T08:00:26;11.65;;;10.55;;
56960;SDS011;42857;49.768;22.716;2022-08-19T08:02:53;16.85;;;10.80;;
56960;SDS011;42857;49.768;22.716;2022-08-19T08:05:19;12.75;;;9.52;;
56960;SDS011;42857;49.768;22.716;2022-08-19T08:08:03;11.95;;;10.63;;
56960;SDS011;42857;49.768;22.716;2022-08-19T08:11:07;12.68;;;10.85;;
56960;SDS011;42857;49.768;22.716;2022-08-19T08:13:34;12.35;;;10.50;;
56960;SDS011;42857;49.768;22.716;2022-08-19T08:16:03;10.98;;;9.80;;
56960;SDS011;42857;49.768;22.716;2022-08-19T08:18:29;11.02;;;9.93;;
56960;SDS011;42857;49.768;22.716;2022-08-19T08:20:56;15.45;;;10.75;;
56960;SDS011;42857;49.768;22.716;2022-08-19T08:23:22;14.23;;;12.75;;
56960;SDS011;42857;49.768;22.716;2022-08-19T08:25:52;11.15;;;9.98;;
56960;SDS011;42857;49.768;22.716;2022-08-19T08:28:19;11.70;;;9.68;;
56960;SDS011;42857;49.768;22.716;2022-08-19T08:30:46;14.50;;;9.75;;
56960;SDS011;42857;49.768;22.716;2022-08-19T08:33:13;12.27;;;10.02;;
56960;SDS011;42857;49.768;22.716;2022-08-19T08:35:39;10.38;;;9.32;;
56960;SDS011;42857;49.768;22.716;2022-08-19T08:38:10;11.27;;;8.93;;
56960;SDS011;42857;49.768;22.716;2022-08-19T08:43:07;11.07;;;9.68;;
56960;SDS011;42857;49.768;22.716;2022-08-19T08:45:35;10.85;;;9.40;;
56960;SDS011;42857;49.768;22.716;2022-08-19T08:48:02;10.45;;;9.23;;
56960;SDS011;42857;49.768;22.716;2022-08-19T08:52:56;10.38;;;8.90;;
56960;SDS011;42857;49.768;22.716;2022-08-19T08:55:24;10.02;;;8.98;;
56960;SDS011;42857;49.768;22.716;2022-08-19T08:57:53;11.13;;;9.60;;
56960;SDS011;42857;49.768;22.716;2022-08-19T09:00:25;10.63;;;8.80;;
56960;SDS011;42857;49.768;22.716;2022-08-19T09:02:52;14.05;;;9.50;;
56960;SDS011;42857;49.768;22.716;2022-08-19T09:05:19;10.55;;;9.32;;
56960;SDS011;42857;49.768;22.716;2022-08-19T09:12:51;8.80;;;7.80;;
56960;SDS011;42857;49.768;22.716;2022-08-19T09:15:22;10.75;;;8.65;;
56960;SDS011;42857;49.768;22.716;2022-08-19T09:17:52;11.55;;;9.02;;
56960;SDS011;42857;49.768;22.716;2022-08-19T09:20:19;10.40;;;8.02;;
56960;SDS011;42857;49.768;22.716;2022-08-19T09:22:46;10.60;;;8.60;;
56960;SDS011;42857;49.768;22.716;2022-08-19T09:25:14;9.20;;;8.10;;
56960;SDS011;42857;49.768;22.716;2022-08-19T09:27:41;9.73;;;8.05;;
56960;SDS011;42857;49.768;22.716;2022-08-19T09:30:08;13.75;;;8.80;;
56960;SDS011;42857;49.768;22.716;2022-08-19T09:32:35;12.55;;;8.95;;
56960;SDS011;42857;49.768;22.716;2022-08-19T09:35:02;11.20;;;8.50;;
56960;SDS011;42857;49.768;22.716;2022-08-19T09:37:28;11.25;;;9.60;;
56960;SDS011;42857;49.768;22.716;2022-08-19T09:39:54;9.07;;;8.00;;
56960;SDS011;42857;49.768;22.716;2022-08-19T09:42:20;9.32;;;8.07;;
56960;SDS011;42857;49.768;22.716;2022-08-19T09:44:46;9.68;;;8.77;;
56960;SDS011;42857;49.768;22.716;2022-08-19T09:47:13;12.73;;;8.63;;
56960;SDS011;42857;49.768;22.716;2022-08-19T09:49:40;12.30;;;9.30;;
56960;SDS011;42857;49.768;22.716;2022-08-19T09:52:07;10.23;;;7.22;;
56960;SDS011;42857;49.768;22.716;2022-08-19T09:54:34;11.32;;;8.13;;
56960;SDS011;42857;49.768;22.716;2022-08-19T09:57:03;11.30;;;8.18;;
56960;SDS011;42857;49.768;22.716;2022-08-19T09:59:29;11.10;;;8.10;;
56960;SDS011;42857;49.768;22.716;2022-08-19T10:01:55;12.10;;;7.15;;
56960;SDS011;42857;49.768;22.716;2022-08-19T10:04:21;12.57;;;8.82;;
56960;SDS011;42857;49.768;22.716;2022-08-19T10:06:48;8.30;;;7.47;;
56960;SDS011;42857;49.768;22.716;2022-08-19T10:09:15;14.52;;;8.25;;
56960;SDS011;42857;49.768;22.716;2022-08-19T10:11:45;8.80;;;7.75;;
56960;SDS011;42857;49.768;22.716;2022-08-19T10:14:15;9.23;;;7.45;;
56960;SDS011;42857;49.768;22.716;2022-08-19T10:16:41;9.65;;;7.75;;
56960;SDS011;42857;49.768;22.716;2022-08-19T10:19:07;9.23;;;8.38;;
56960;SDS011;42857;49.768;22.716;2022-08-19T10:21:34;9.40;;;8.38;;
56960;SDS011;42857;49.768;22.716;2022-08-19T10:24:04;13.07;;;7.75;;
56960;SDS011;42857;49.768;22.716;2022-08-19T10:26:32;9.90;;;7.90;;
56960;SDS011;42857;49.768;22.716;2022-08-19T10:28:58;10.18;;;8.07;;
56960;SDS011;42857;49.768;22.716;2022-08-19T10:31:26;13.23;;;9.20;;
56960;SDS011;42857;49.768;22.716;2022-08-19T10:33:52;8.50;;;7.65;;
56960;SDS011;42857;49.768;22.716;2022-08-19T10:36:23;10.98;;;7.88;;
56960;SDS011;42857;49.768;22.716;2022-08-19T10:38:50;8.20;;;7.45;;
56960;SDS011;42857;49.768;22.716;2022-08-19T10:41:18;8.45;;;7.55;;
56960;SDS011;42857;49.768;22.716;2022-08-19T10:43:44;8.27;;;7.45;;
56960;SDS011;42857;49.768;22.716;2022-08-19T10:46:12;11.88;;;7.00;;
56960;SDS011;42857;49.768;22.716;2022-08-19T10:48:38;8.95;;;8.00;;
56960;SDS011;42857;49.768;22.716;2022-08-19T10:51:04;28.98;;;23.75;;
56960;SDS011;42857;49.768;22.716;2022-08-19T10:53:49;11.73;;;9.90;;
56960;SDS011;42857;49.768;22.716;2022-08-19T10:56:15;12.20;;;8.18;;
56960;SDS011;42857;49.768;22.716;2022-08-19T10:59:00;8.57;;;7.60;;
56960;SDS011;42857;49.768;22.716;2022-08-19T11:01:28;9.73;;;7.97;;
56960;SDS011;42857;49.768;22.716;2022-08-19T11:03:55;8.07;;;7.38;;
56960;SDS011;42857;49.768;22.716;2022-08-19T11:06:22;14.88;;;7.25;;
56960;SDS011;42857;49.768;22.716;2022-08-19T11:08:50;8.50;;;7.63;;
56960;SDS011;42857;49.768;22.716;2022-08-19T11:11:16;8.40;;;7.57;;
56960;SDS011;42857;49.768;22.716;2022-08-19T11:13:42;10.18;;;7.18;;
56960;SDS011;42857;49.768;22.716;2022-08-19T11:18:36;11.35;;;8.15;;
56960;SDS011;42857;49.768;22.716;2022-08-19T11:21:19;8.60;;;7.28;;
56960;SDS011;42857;49.768;22.716;2022-08-19T11:23:47;8.07;;;6.95;;
56960;SDS011;42857;49.768;22.716;2022-08-19T11:26:13;13.65;;;8.02;;
56960;SDS011;42857;49.768;22.716;2022-08-19T11:28:39;16.65;;;13.20;;
56960;SDS011;42857;49.768;22.716;2022-08-19T11:31:25;16.00;;;12.27;;
56960;SDS011;42857;49.768;22.716;2022-08-19T11:33:52;9.75;;;8.75;;
56960;SDS011;42857;49.768;22.716;2022-08-19T11:36:19;14.70;;;9.93;;
56960;SDS011;42857;49.768;22.716;2022-08-19T11:38:46;10.02;;;7.38;;
56960;SDS011;42857;49.768;22.716;2022-08-19T11:41:13;17.50;;;15.67;;
56960;SDS011;42857;49.768;22.716;2022-08-19T11:43:39;11.23;;;8.65;;
56960;SDS011;42857;49.768;22.716;2022-08-19T11:46:06;8.32;;;6.80;;
56960;SDS011;42857;49.768;22.716;2022-08-19T11:48:32;9.25;;;7.40;;
56960;SDS011;42857;49.768;22.716;2022-08-19T11:50:58;7.57;;;6.78;;
56960;SDS011;42857;49.768;22.716;2022-08-19T11:53:24;8.40;;;5.80;;
56960;SDS011;42857;49.768;22.716;2022-08-19T11:55:50;8.55;;;6.57;;
56960;SDS011;42857;49.768;22.716;2022-08-19T11:58:21;29.67;;;26.45;;
56960;SDS011;42857;49.768;22.716;2022-08-19T12:00:47;14.93;;;13.35;;
56960;SDS011;42857;49.768;22.716;2022-08-19T12:03:14;9.05;;;6.53;;
56960;SDS011;42857;49.768;22.716;2022-08-19T12:05:40;7.18;;;6.47;;
56960;SDS011;42857;49.768;22.716;2022-08-19T12:08:06;8.25;;;6.30;;
56960;SDS011;42857;49.768;22.716;2022-08-19T12:10:33;11.00;;;7.10;;
56960;SDS011;42857;49.768;22.716;2022-08-19T12:12:59;9.48;;;6.20;;
56960;SDS011;42857;49.768;22.716;2022-08-19T12:15:25;10.93;;;6.28;;
56960;SDS011;42857;49.768;22.716;2022-08-19T12:17:53;7.07;;;6.05;;
56960;SDS011;42857;49.768;22.716;2022-08-19T12:20:21;6.68;;;5.80;;
56960;SDS011;42857;49.768;22.716;2022-08-19T12:22:48;9.32;;;6.57;;
56960;SDS011;42857;49.768;22.716;2022-08-19T12:25:14;7.78;;;6.60;;
56960;SDS011;42857;49.768;22.716;2022-08-19T12:27:40;9.32;;;6.15;;
56960;SDS011;42857;49.768;22.716;2022-08-19T12:30:07;8.65;;;6.38;;
56960;SDS011;42857;49.768;22.716;2022-08-19T12:32:33;8.52;;;7.55;;
56960;SDS011;42857;49.768;22.716;2022-08-19T12:34:59;7.70;;;6.25;;
56960;SDS011;42857;49.768;22.716;2022-08-19T12:37:26;7.20;;;6.07;;
56960;SDS011;42857;49.768;22.716;2022-08-19T12:39:51;7.53;;;5.57;;
56960;SDS011;42857;49.768;22.716;2022-08-19T12:42:17;5.93;;;5.28;;
56960;SDS011;42857;49.768;22.716;2022-08-19T12:44:46;6.43;;;5.10;;
56960;SDS011;42857;49.768;22.716;2022-08-19T12:47:12;9.38;;;5.95;;
56960;SDS011;42857;49.768;22.716;2022-08-19T12:49:39;7.93;;;5.50;;
56960;SDS011;42857;49.768;22.716;2022-08-19T12:52:05;8.95;;;5.93;;
56960;SDS011;42857;49.768;22.716;2022-08-19T12:56:58;5.68;;;5.18;;
56960;SDS011;42857;49.768;22.716;2022-08-19T12:59:24;5.70;;;5.07;;
56960;SDS011;42857;49.768;22.716;2022-08-19T13:01:50;5.97;;;4.88;;
56960;SDS011;42857;49.768;22.716;2022-08-19T13:04:16;8.63;;;5.30;;
56960;SDS011;42857;49.768;22.716;2022-08-19T13:06:43;7.25;;;5.75;;
56960;SDS011;42857;49.768;22.716;2022-08-19T13:09:09;6.80;;;5.68;;
56960;SDS011;42857;49.768;22.716;2022-08-19T13:11:35;6.53;;;4.97;;
56960;SDS011;42857;49.768;22.716;2022-08-19T13:16:28;27.10;;;16.53;;
56960;SDS011;42857;49.768;22.716;2022-08-19T13:18:55;11.82;;;6.65;;
56960;SDS011;42857;49.768;22.716;2022-08-19T13:21:22;8.70;;;5.47;;
56960;SDS011;42857;49.768;22.716;2022-08-19T13:23:48;12.73;;;5.63;;
56960;SDS011;42857;49.768;22.716;2022-08-19T13:26:15;11.95;;;5.60;;
56960;SDS011;42857;49.768;22.716;2022-08-19T13:28:41;8.35;;;5.72;;
56960;SDS011;42857;49.768;22.716;2022-08-19T13:31:27;11.20;;;5.28;;
56960;SDS011;42857;49.768;22.716;2022-08-19T13:34:11;8.30;;;5.30;;
56960;SDS011;42857;49.768;22.716;2022-08-19T13:36:38;10.00;;;5.55;;
56960;SDS011;42857;49.768;22.716;2022-08-19T13:39:05;9.65;;;5.55;;
56960;SDS011;42857;49.768;22.716;2022-08-19T13:41:32;11.70;;;5.68;;
56960;SDS011;42857;49.768;22.716;2022-08-19T13:44:00;11.43;;;5.22;;
56960;SDS011;42857;49.768;22.716;2022-08-19T13:46:26;13.30;;;5.40;;
56960;SDS011;42857;49.768;22.716;2022-08-19T13:48:55;10.18;;;5.30;;
56960;SDS011;42857;49.768;22.716;2022-08-19T13:51:21;11.53;;;5.67;;
56960;SDS011;42857;49.768;22.716;2022-08-19T13:53:47;13.18;;;5.53;;
56960;SDS011;42857;49.768;22.716;2022-08-19T13:56:14;15.18;;;6.57;;
56960;SDS011;42857;49.768;22.716;2022-08-19T14:01:07;15.02;;;7.68;;
56960;SDS011;42857;49.768;22.716;2022-08-19T14:03:34;31.87;;;17.27;;
56960;SDS011;42857;49.768;22.716;2022-08-19T14:06:00;21.58;;;12.43;;
56960;SDS011;42857;49.768;22.716;2022-08-19T14:08:26;11.57;;;7.55;;
56960;SDS011;42857;49.768;22.716;2022-08-19T14:10:53;12.05;;;5.93;;
56960;SDS011;42857;49.768;22.716;2022-08-19T14:13:20;10.77;;;5.35;;
56960;SDS011;42857;49.768;22.716;2022-08-19T14:15:46;11.20;;;7.35;;
56960;SDS011;42857;49.768;22.716;2022-08-19T14:18:12;10.98;;;5.57;;
56960;SDS011;42857;49.768;22.716;2022-08-19T14:20:38;10.35;;;5.43;;
56960;SDS011;42857;49.768;22.716;2022-08-19T14:23:04;10.65;;;4.90;;
56960;SDS011;42857;49.768;22.716;2022-08-19T14:25:31;14.05;;;6.13;;
56960;SDS011;42857;49.768;22.716;2022-08-19T14:27:57;10.40;;;7.63;;
56960;SDS011;42857;49.768;22.716;2022-08-19T14:30:28;9.93;;;5.60;;
56960;SDS011;42857;49.768;22.716;2022-08-19T14:32:55;12.77;;;5.95;;
56960;SDS011;42857;49.768;22.716;2022-08-19T14:35:22;15.93;;;6.47;;
56960;SDS011;42857;49.768;22.716;2022-08-19T14:37:49;30.67;;;23.30;;
56960;SDS011;42857;49.768;22.716;2022-08-19T14:40:16;13.38;;;7.13;;